createdAt,value
2023-05-13T00:00:59.986Z,17.42
2023-05-13T00:03:26.903Z,11.45
2023-05-13T00:05:53.754Z,15.20
2023-05-13T00:08:20.524Z,13.30
2023-05-13T00:10:47.253Z,14.05
2023-05-13T00:13:13.948Z,16.90
2023-05-13T00:15:40.951Z,11.48
2023-05-13T00:18:07.777Z,12.50
2023-05-13T00:20:34.467Z,12.93
2023-05-13T00:23:01.164Z,10.23
2023-05-13T00:25:27.878Z,15.02
2023-05-13T00:27:54.660Z,11.55
2023-05-13T00:30:21.562Z,13.98
2023-05-13T00:32:48.499Z,12.57
2023-05-13T00:35:15.284Z,12.70
2023-05-13T00:37:42.049Z,11.93
2023-05-13T00:40:16.403Z,13.00
2023-05-13T00:42:43.312Z,9.90
2023-05-13T00:45:10.575Z,12.98
2023-05-13T00:47:37.302Z,10.57
2023-05-13T00:50:04.250Z,12.27
2023-05-13T00:52:30.931Z,14.80
2023-05-13T00:54:58.223Z,14.13
2023-05-13T00:57:25.034Z,11.93
2023-05-13T00:59:52.042Z,10.20
2023-05-13T01:02:32.765Z,12.50
2023-05-13T01:05:05.730Z,12.15
2023-05-13T01:07:35.512Z,12.88
2023-05-13T01:10:28.377Z,15.63
2023-05-13T01:12:58.270Z,21.77
2023-05-13T01:18:02.203Z,15.68
2023-05-13T01:20:30.690Z,12.10
2023-05-13T01:22:57.725Z,12.73
2023-05-13T01:25:25.827Z,15.18
2023-05-13T01:27:53.092Z,13.05
2023-05-13T01:30:20.866Z,15.52
2023-05-13T01:32:48.617Z,12.18
2023-05-13T01:35:16.807Z,12.77
2023-05-13T01:37:45.803Z,14.18
2023-05-13T01:40:28.224Z,12.90
2023-05-13T01:43:00.882Z,14.05
2023-05-13T01:45:28.455Z,15.65
2023-05-13T01:47:55.800Z,14.63
2023-05-13T01:50:23.078Z,14.07
2023-05-13T01:52:50.047Z,13.18
2023-05-13T01:55:16.866Z,18.15
2023-05-13T01:57:46.324Z,14.82
2023-05-13T02:00:13.339Z,16.45
2023-05-13T02:05:09.712Z,13.07
2023-05-13T02:07:37.517Z,12.80
2023-05-13T02:10:04.414Z,13.48
2023-05-13T02:12:32.301Z,13.60
2023-05-13T02:14:59.015Z,14.70
2023-05-13T02:17:25.970Z,16.23
2023-05-13T02:19:53.530Z,15.35
2023-05-13T02:22:20.245Z,16.00
2023-05-13T02:24:46.880Z,19.05
2023-05-13T02:27:16.420Z,15.85
2023-05-13T02:29:43.088Z,15.52
2023-05-13T02:32:10.921Z,19.65
2023-05-13T02:34:37.905Z,19.33
2023-05-13T02:37:04.742Z,13.00
2023-05-13T02:39:33.032Z,16.77
2023-05-13T02:42:00.033Z,17.33
2023-05-13T02:44:31.686Z,16.23
2023-05-13T02:46:58.451Z,18.77
2023-05-13T02:49:25.148Z,16.63
2023-05-13T02:51:51.876Z,18.42
2023-05-13T02:54:23.524Z,13.85
2023-05-13T02:56:50.174Z,14.95
2023-05-13T02:59:16.882Z,16.35
2023-05-13T03:01:43.798Z,14.60
2023-05-13T03:04:10.498Z,20.83
2023-05-13T03:06:37.181Z,17.95
2023-05-13T03:09:04.124Z,16.98
2023-05-13T03:11:30.883Z,18.92
2023-05-13T03:13:58.858Z,21.35
2023-05-13T03:16:26.253Z,18.25
2023-05-13T03:18:53.077Z,16.90
2023-05-13T03:21:19.860Z,20.30
2023-05-13T03:23:46.950Z,17.45
2023-05-13T03:26:14.180Z,16.92
2023-05-13T03:28:40.890Z,20.15
2023-05-13T03:31:07.889Z,16.33
2023-05-13T03:33:38.050Z,18.25
2023-05-13T03:36:05.089Z,20.50
2023-05-13T03:38:32.241Z,18.08
2023-05-13T03:40:59.083Z,20.15
2023-05-13T03:43:26.136Z,19.90
2023-05-13T03:45:59.942Z,17.27
2023-05-13T03:48:26.844Z,21.42
2023-05-13T03:50:55.698Z,17.45
2023-05-13T03:53:23.353Z,18.65
2023-05-13T03:55:50.619Z,20.85
2023-05-13T03:58:17.426Z,20.38
2023-05-13T04:00:46.995Z,19.27
2023-05-13T04:03:14.306Z,21.52
2023-05-13T04:05:42.005Z,20.08
2023-05-13T04:08:08.700Z,19.25
2023-05-13T04:10:35.716Z,19.80
2023-05-13T04:13:02.424Z,21.35
2023-05-13T04:15:29.145Z,20.40
2023-05-13T04:17:55.969Z,19.33
2023-05-13T04:20:22.930Z,18.52
2023-05-13T04:22:50.037Z,19.42
2023-05-13T04:25:16.730Z,17.77
2023-05-13T04:27:43.482Z,22.40
2023-05-13T04:30:16.188Z,23.48
2023-05-13T04:32:44.523Z,20.02
2023-05-13T04:35:12.529Z,18.08
2023-05-13T04:37:41.259Z,20.20
2023-05-13T04:40:11.709Z,21.10
2023-05-13T04:42:38.415Z,26.50
2023-05-13T04:45:05.309Z,24.77
2023-05-13T04:47:35.373Z,30.30
2023-05-13T04:50:02.312Z,31.33
2023-05-13T04:52:30.479Z,33.60
2023-05-13T04:54:57.397Z,33.10
2023-05-13T04:57:24.139Z,30.80
2023-05-13T04:59:50.953Z,35.40
2023-05-13T05:02:18.428Z,29.13
2023-05-13T05:04:45.326Z,32.75
2023-05-13T05:07:14.260Z,36.10
2023-05-13T05:09:41.052Z,32.65
2023-05-13T05:12:08.141Z,37.20
2023-05-13T05:14:38.372Z,36.28
2023-05-13T05:17:06.705Z,32.22
2023-05-13T05:19:33.732Z,32.67
2023-05-13T05:22:00.468Z,35.78
2023-05-13T05:24:27.158Z,35.45
2023-05-13T05:26:53.878Z,30.83
2023-05-13T05:29:21.079Z,31.85
2023-05-13T05:31:47.889Z,32.00
2023-05-13T05:34:15.017Z,33.38
2023-05-13T05:36:43.174Z,33.72
2023-05-13T05:39:11.244Z,29.15
2023-05-13T05:41:38.007Z,29.55
2023-05-13T05:44:04.740Z,33.05
2023-05-13T05:46:32.928Z,31.38
2023-05-13T05:49:02.716Z,27.65
2023-05-13T05:51:31.859Z,27.42
2023-05-13T05:54:01.788Z,28.67
2023-05-13T05:56:28.654Z,25.95
2023-05-13T05:58:55.490Z,26.15
2023-05-13T06:01:22.204Z,26.70
2023-05-13T06:03:49.656Z,23.73
2023-05-13T06:06:18.523Z,27.10
2023-05-13T06:08:45.318Z,25.92
2023-05-13T06:11:13.333Z,22.27
2023-05-13T06:13:40.070Z,22.55
2023-05-13T06:16:06.911Z,27.17
2023-05-13T06:18:33.664Z,24.92
2023-05-13T06:21:00.543Z,25.13
2023-05-13T06:23:27.278Z,22.95
2023-05-13T06:25:54.086Z,20.13
2023-05-13T06:28:20.828Z,21.23
2023-05-13T06:30:49.854Z,18.52
2023-05-13T06:33:16.649Z,17.75
2023-05-13T06:35:48.157Z,19.65
2023-05-13T06:38:17.985Z,19.25
2023-05-13T06:40:46.048Z,16.15
2023-05-13T06:43:16.613Z,18.90
2023-05-13T06:45:47.435Z,18.67
2023-05-13T06:48:14.771Z,17.60
2023-05-13T06:50:41.779Z,16.20
2023-05-13T06:53:09.408Z,17.67
2023-05-13T06:55:41.811Z,19.30
2023-05-13T06:58:08.913Z,15.20
2023-05-13T07:00:39.351Z,20.33
2023-05-13T07:03:06.991Z,16.83
2023-05-13T07:05:33.849Z,17.50
2023-05-13T07:08:00.757Z,15.95
2023-05-13T07:10:27.512Z,20.48
2023-05-13T07:12:54.233Z,14.75
2023-05-13T07:15:21.298Z,15.90
2023-05-13T07:17:48.290Z,19.83
2023-05-13T07:20:15.383Z,15.98
2023-05-13T07:22:42.143Z,13.15
2023-05-13T07:25:09.376Z,17.23
2023-05-13T07:27:36.116Z,14.18
2023-05-13T07:30:02.826Z,15.68
2023-05-13T07:32:30.464Z,16.33
2023-05-13T07:34:57.134Z,14.45
2023-05-13T07:37:24.719Z,16.75
2023-05-13T07:39:51.368Z,14.93
2023-05-13T07:42:19.348Z,19.38
2023-05-13T07:44:46.155Z,12.93
2023-05-13T07:47:13.759Z,14.13
2023-05-13T07:49:40.597Z,12.43
2023-05-13T07:52:07.903Z,13.07
2023-05-13T07:54:34.666Z,16.00
2023-05-13T07:57:01.414Z,13.52
2023-05-13T07:59:28.085Z,12.75
2023-05-13T08:01:54.769Z,12.57
2023-05-13T08:04:21.818Z,15.27
2023-05-13T08:06:48.589Z,14.48
2023-05-13T08:09:15.404Z,11.38
2023-05-13T08:11:42.041Z,11.00
2023-05-13T08:14:08.740Z,15.75
2023-05-13T08:16:36.503Z,11.60
2023-05-13T08:19:03.562Z,15.07
2023-05-13T08:21:30.650Z,16.08
2023-05-13T08:23:57.351Z,12.45
2023-05-13T08:26:24.115Z,14.85
2023-05-13T08:28:54.498Z,15.82
2023-05-13T08:31:22.006Z,14.07
2023-05-13T08:33:48.849Z,12.48
2023-05-13T08:36:16.075Z,15.43
2023-05-13T08:38:43.842Z,11.88
2023-05-13T08:41:17.114Z,14.65
2023-05-13T08:43:44.457Z,15.95
2023-05-13T08:46:12.153Z,14.88
2023-05-13T08:48:41.066Z,11.90
2023-05-13T08:51:08.512Z,15.40
2023-05-13T08:53:36.068Z,13.10
2023-05-13T08:56:02.767Z,14.32
2023-05-13T08:58:29.555Z,15.27
2023-05-13T09:00:56.617Z,15.32
2023-05-13T09:03:26.177Z,11.50
2023-05-13T09:05:52.952Z,12.93
2023-05-13T09:08:19.671Z,11.23
2023-05-13T09:10:46.786Z,15.10
2023-05-13T09:13:13.678Z,11.70
2023-05-13T09:15:44.568Z,13.05
2023-05-13T09:18:11.600Z,11.63
2023-05-13T09:20:38.481Z,10.30
2023-05-13T09:23:09.448Z,17.98
2023-05-13T09:25:37.277Z,14.82
2023-05-13T09:28:05.050Z,11.70
2023-05-13T09:30:35.850Z,8.43
2023-05-13T09:33:09.067Z,12.20
2023-05-13T09:35:42.660Z,8.93
2023-05-13T09:38:15.062Z,10.02
2023-05-13T09:40:42.168Z,5.43
2023-05-13T09:43:08.909Z,15.10
2023-05-13T09:45:36.346Z,21.95
2023-05-13T09:48:03.374Z,14.85
2023-05-13T09:50:31.606Z,10.82
2023-05-13T09:52:58.412Z,11.32
2023-05-13T09:55:25.117Z,7.75
2023-05-13T09:57:53.354Z,7.90
2023-05-13T10:00:31.524Z,10.88
2023-05-13T10:03:02.519Z,8.93
2023-05-13T10:05:29.639Z,12.55
2023-05-13T10:07:57.193Z,6.05
2023-05-13T10:10:24.308Z,10.75
2023-05-13T10:12:51.727Z,8.60
2023-05-13T10:15:18.919Z,10.85
2023-05-13T10:17:46.955Z,9.88
2023-05-13T10:20:14.436Z,12.60
2023-05-13T10:22:41.244Z,8.55
2023-05-13T10:25:08.889Z,8.32
2023-05-13T10:27:35.621Z,6.55
2023-05-13T10:30:03.675Z,9.50
2023-05-13T10:32:31.554Z,12.95
2023-05-13T10:35:04.188Z,9.98
2023-05-13T10:37:45.379Z,7.40
2023-05-13T10:40:30.802Z,7.38
2023-05-13T10:43:06.452Z,7.15
2023-05-13T10:48:05.601Z,7.55
2023-05-13T10:50:32.350Z,11.38
2023-05-13T10:52:59.148Z,5.93
2023-05-13T10:55:26.784Z,8.30
2023-05-13T10:58:12.413Z,6.00
2023-05-13T11:00:43.146Z,6.60
2023-05-13T11:03:13.756Z,10.65
2023-05-13T11:05:41.848Z,9.77
2023-05-13T11:08:08.558Z,12.88
2023-05-13T11:10:35.327Z,5.45
2023-05-13T11:13:14.022Z,6.68
2023-05-13T11:15:44.926Z,5.30
2023-05-13T11:18:15.076Z,11.15
2023-05-13T11:20:52.206Z,6.13
2023-05-13T11:23:20.340Z,9.65
2023-05-13T11:25:48.225Z,8.63
2023-05-13T11:28:16.103Z,7.25
2023-05-13T11:30:52.928Z,11.25
2023-05-13T11:33:19.647Z,5.93
2023-05-13T11:35:53.517Z,5.60
2023-05-13T11:38:25.194Z,7.32
2023-05-13T11:40:52.828Z,8.48
2023-05-13T11:43:21.137Z,4.85
2023-05-13T11:45:47.963Z,5.57
2023-05-13T11:48:19.305Z,11.70
2023-05-13T11:50:46.231Z,6.10
2023-05-13T11:53:19.346Z,5.50
2023-05-13T11:55:46.056Z,5.53
2023-05-13T11:58:13.869Z,7.32
2023-05-13T12:00:40.574Z,8.32
2023-05-13T12:03:12.176Z,6.43
2023-05-13T12:05:44.352Z,6.68
2023-05-13T12:08:11.662Z,8.77
2023-05-13T12:10:45.145Z,6.32
2023-05-13T12:13:12.594Z,5.35
2023-05-13T12:15:39.383Z,5.65
2023-05-13T12:18:06.850Z,9.40
2023-05-13T12:20:33.728Z,8.90
2023-05-13T12:23:01.112Z,9.25
2023-05-13T12:25:48.027Z,7.43
2023-05-13T12:28:18.081Z,9.45
2023-05-13T12:30:53.833Z,7.30
2023-05-13T12:33:24.574Z,8.95
2023-05-13T12:35:53.471Z,5.60
2023-05-13T12:38:24.806Z,10.35
2023-05-13T12:40:51.791Z,14.57
2023-05-13T12:43:19.846Z,7.20
2023-05-13T12:45:47.380Z,6.15
2023-05-13T12:48:14.821Z,11.40
2023-05-13T12:50:41.548Z,7.65
2023-05-13T12:53:08.233Z,15.00
2023-05-13T12:55:40.330Z,8.93
2023-05-13T12:58:07.573Z,8.52
2023-05-13T13:00:34.391Z,6.57
2023-05-13T13:03:01.441Z,10.85
2023-05-13T13:05:28.239Z,5.47
2023-05-13T13:07:54.891Z,9.73
2023-05-13T13:10:21.703Z,8.98
2023-05-13T13:12:49.733Z,8.88
2023-05-13T13:15:16.597Z,8.63
2023-05-13T13:17:43.348Z,17.80
2023-05-13T13:20:10.217Z,5.68
2023-05-13T13:22:37.500Z,13.35
2023-05-13T13:25:07.441Z,8.73
2023-05-13T13:27:34.965Z,6.00
2023-05-13T13:30:02.036Z,6.25
2023-05-13T13:32:28.896Z,7.05
2023-05-13T13:34:56.110Z,12.63
2023-05-13T13:37:22.798Z,11.27
2023-05-13T13:39:49.552Z,7.35
2023-05-13T13:42:16.398Z,10.75
2023-05-13T13:44:43.058Z,12.02
2023-05-13T13:47:10.033Z,6.85
2023-05-13T13:49:36.680Z,5.95
2023-05-13T13:52:03.394Z,5.90
2023-05-13T13:54:30.092Z,9.43
2023-05-13T13:56:56.741Z,8.93
2023-05-13T13:59:23.460Z,7.15
2023-05-13T14:01:50.149Z,11.60
2023-05-13T14:04:20.503Z,6.20
2023-05-13T14:06:47.202Z,6.70
2023-05-13T14:09:13.897Z,8.68
2023-05-13T14:11:40.623Z,7.78
2023-05-13T14:14:08.537Z,9.30
2023-05-13T14:16:35.758Z,10.65
2023-05-13T14:19:02.549Z,8.65
2023-05-13T14:21:29.220Z,8.23
2023-05-13T14:23:55.921Z,5.45
2023-05-13T14:26:22.696Z,6.50
2023-05-13T14:28:49.497Z,11.93
2023-05-13T14:31:16.290Z,6.90
2023-05-13T14:33:42.990Z,6.43
2023-05-13T14:36:11.373Z,10.40
2023-05-13T14:38:40.033Z,9.82
2023-05-13T14:41:06.742Z,10.15
2023-05-13T14:43:33.396Z,6.93
2023-05-13T14:46:00.158Z,5.53
2023-05-13T14:48:27.527Z,11.98
2023-05-13T14:50:54.355Z,6.47
2023-05-13T14:53:21.178Z,4.82
2023-05-13T14:55:50.037Z,8.80
2023-05-13T14:58:18.192Z,7.20
2023-05-13T15:00:44.981Z,11.48
2023-05-13T15:03:12.192Z,7.93
2023-05-13T15:05:38.958Z,8.32
2023-05-13T15:08:05.619Z,9.43
2023-05-13T15:10:32.238Z,11.50
2023-05-13T15:12:59.230Z,6.70
2023-05-13T15:15:26.000Z,9.93
2023-05-13T15:17:52.886Z,7.78
2023-05-13T15:20:19.790Z,8.98
2023-05-13T15:22:46.584Z,9.85
2023-05-13T15:25:13.350Z,9.20
2023-05-13T15:27:40.070Z,17.75
2023-05-13T15:30:07.358Z,10.45
2023-05-13T15:32:34.128Z,9.82
2023-05-13T15:35:00.913Z,7.13
2023-05-13T15:37:27.708Z,7.50
2023-05-13T15:39:54.602Z,6.90
2023-05-13T15:42:21.636Z,11.32
2023-05-13T15:44:48.336Z,6.88
2023-05-13T15:47:15.140Z,8.80
2023-05-13T15:49:42.300Z,8.50
2023-05-13T15:52:09.011Z,7.47
2023-05-13T15:54:35.774Z,8.00
2023-05-13T15:57:02.509Z,6.32
2023-05-13T15:59:29.215Z,10.90
2023-05-13T16:01:55.974Z,8.75
2023-05-13T16:04:22.756Z,8.70
2023-05-13T16:06:49.443Z,10.18
2023-05-13T16:09:16.141Z,9.65
2023-05-13T16:11:43.626Z,6.05
2023-05-13T16:14:10.523Z,6.65
2023-05-13T16:16:37.727Z,12.05
2023-05-13T16:19:04.724Z,9.38
2023-05-13T16:21:31.912Z,9.93
2023-05-13T16:23:58.682Z,10.07
2023-05-13T16:26:26.500Z,10.07
2023-05-13T16:28:53.166Z,7.70
2023-05-13T16:31:19.880Z,8.40
2023-05-13T16:33:46.584Z,8.10
2023-05-13T16:36:13.322Z,9.63
2023-05-13T16:38:41.737Z,9.38
2023-05-13T16:41:08.895Z,7.78
2023-05-13T16:43:35.660Z,9.52
2023-05-13T16:46:02.667Z,10.48
2023-05-13T16:48:29.572Z,10.13
2023-05-13T16:50:56.376Z,6.53
2023-05-13T16:53:23.156Z,6.28
2023-05-13T16:55:50.308Z,7.20
2023-05-13T16:58:17.119Z,5.70
2023-05-13T17:00:43.938Z,5.25
2023-05-13T17:03:11.113Z,10.20
2023-05-13T17:05:38.003Z,11.23
2023-05-13T17:08:04.756Z,7.55
2023-05-13T17:10:31.503Z,14.00
2023-05-13T17:12:58.490Z,9.77
2023-05-13T17:15:25.439Z,9.20
2023-05-13T17:17:52.218Z,12.05
2023-05-13T17:20:19.959Z,7.22
2023-05-13T17:22:47.702Z,7.30
2023-05-13T17:25:14.785Z,7.60
2023-05-13T17:27:41.649Z,12.60
2023-05-13T17:30:08.699Z,8.35
2023-05-13T17:32:38.289Z,7.30
2023-05-13T17:35:05.335Z,7.82
2023-05-13T17:37:31.998Z,8.93
2023-05-13T17:40:00.939Z,6.47
2023-05-13T17:42:29.187Z,8.65
2023-05-13T17:44:56.217Z,12.10
2023-05-13T17:47:23.051Z,9.20
2023-05-13T17:49:49.921Z,5.90
2023-05-13T17:52:16.609Z,10.75
2023-05-13T17:54:43.385Z,8.95
2023-05-13T17:57:11.257Z,10.63
2023-05-13T17:59:38.069Z,11.18
2023-05-13T18:02:04.922Z,9.02
2023-05-13T18:04:31.738Z,7.35
2023-05-13T18:06:58.420Z,9.10
2023-05-13T18:09:25.191Z,7.65
2023-05-13T18:11:51.932Z,7.75
2023-05-13T18:14:18.833Z,9.15
2023-05-13T18:16:45.758Z,8.00
2023-05-13T18:19:12.567Z,6.68
2023-05-13T18:21:39.293Z,11.15
2023-05-13T18:24:06.259Z,9.13
2023-05-13T18:26:32.935Z,10.07
2023-05-13T18:28:59.694Z,10.15
2023-05-13T18:31:26.623Z,7.93
2023-05-13T18:33:53.409Z,5.43
2023-05-13T18:36:20.142Z,5.03
2023-05-13T18:38:48.106Z,7.05
2023-05-13T18:41:15.224Z,9.00
2023-05-13T18:43:41.950Z,9.75
2023-05-13T18:46:09.006Z,8.70
2023-05-13T18:48:35.930Z,6.15
2023-05-13T18:51:02.603Z,8.23
2023-05-13T18:53:29.305Z,7.40
2023-05-13T18:55:56.013Z,8.13
2023-05-13T18:58:22.993Z,7.40
2023-05-13T19:00:49.812Z,7.70
2023-05-13T19:05:43.377Z,8.63
2023-05-13T19:08:10.105Z,8.43
2023-05-13T19:10:39.905Z,8.15
2023-05-13T19:13:07.341Z,12.95
2023-05-13T19:15:34.135Z,10.73
2023-05-13T19:18:01.303Z,12.93
2023-05-13T19:20:28.193Z,8.93
2023-05-13T19:22:54.875Z,11.63
2023-05-13T19:25:21.592Z,7.80
2023-05-13T19:27:49.555Z,9.05
2023-05-13T19:30:16.381Z,9.43
2023-05-13T19:32:43.936Z,7.18
2023-05-13T19:35:11.566Z,15.52
2023-05-13T19:37:38.351Z,12.73
2023-05-13T19:40:05.556Z,12.27
2023-05-13T19:42:32.401Z,12.85
2023-05-13T19:44:59.136Z,13.85
2023-05-13T19:47:27.080Z,12.50
2023-05-13T19:49:54.118Z,8.90
2023-05-13T19:52:21.056Z,9.38
2023-05-13T19:54:47.734Z,12.45
2023-05-13T19:57:14.490Z,12.27
2023-05-13T19:59:41.933Z,11.30
2023-05-13T20:02:09.008Z,11.32
2023-05-13T20:04:35.893Z,14.93
2023-05-13T20:07:02.663Z,13.55
2023-05-13T20:09:29.531Z,11.75
2023-05-13T20:11:56.273Z,11.43
2023-05-13T20:14:23.459Z,14.00
2023-05-13T20:16:50.436Z,14.05
2023-05-13T20:19:17.384Z,13.05
2023-05-13T20:21:44.485Z,13.48
2023-05-13T20:24:11.236Z,14.18
2023-05-13T20:26:37.904Z,15.02
2023-05-13T20:29:04.758Z,15.60
2023-05-13T20:31:31.509Z,15.18
2023-05-13T20:33:58.737Z,18.02
2023-05-13T20:36:25.475Z,12.75
2023-05-13T20:38:52.153Z,12.10
2023-05-13T20:41:18.839Z,12.25
2023-05-13T20:43:45.504Z,12.77
2023-05-13T20:46:17.008Z,12.50
2023-05-13T20:48:43.897Z,16.05
2023-05-13T20:51:10.888Z,12.85
2023-05-13T20:53:37.896Z,21.00
2023-05-13T20:56:04.876Z,11.85
2023-05-13T20:58:31.630Z,14.23
2023-05-13T21:00:58.350Z,17.60
2023-05-13T21:03:25.382Z,17.73
2023-05-13T21:05:52.176Z,9.88
2023-05-13T21:08:18.968Z,16.35
2023-05-13T21:10:45.731Z,14.82
2023-05-13T21:13:12.638Z,14.63
2023-05-13T21:15:39.501Z,13.43
2023-05-13T21:18:06.464Z,12.85
2023-05-13T21:20:33.691Z,15.82
2023-05-13T21:23:01.494Z,12.98
2023-05-13T21:25:28.265Z,17.70
2023-05-13T21:27:55.117Z,14.43
2023-05-13T21:30:21.978Z,17.92
2023-05-13T21:32:48.886Z,17.02
2023-05-13T21:35:15.997Z,21.30
2023-05-13T21:37:43.178Z,20.55
2023-05-13T21:40:10.704Z,19.95
2023-05-13T21:42:37.375Z,15.82
2023-05-13T21:45:04.117Z,15.73
2023-05-13T21:47:30.952Z,21.67
2023-05-13T21:49:57.707Z,14.73
2023-05-13T21:52:24.692Z,15.55
2023-05-13T21:54:52.609Z,17.30
2023-05-13T21:57:19.345Z,19.83
2023-05-13T21:59:46.102Z,19.35
2023-05-13T22:02:12.838Z,18.50
2023-05-13T22:04:39.496Z,16.75
2023-05-13T22:07:06.221Z,15.27
2023-05-13T22:09:32.912Z,19.75
2023-05-13T22:11:59.599Z,16.77
2023-05-13T22:14:26.524Z,17.13
2023-05-13T22:17:07.936Z,21.33
2023-05-13T22:19:36.298Z,20.00
2023-05-13T22:22:03.070Z,18.67
2023-05-13T22:24:29.702Z,17.00
2023-05-13T22:26:56.427Z,17.33
2023-05-13T22:29:23.110Z,17.90
2023-05-13T22:31:50.984Z,18.02
2023-05-13T22:34:18.036Z,19.15
2023-05-13T22:36:44.815Z,18.63
2023-05-13T22:39:12.494Z,16.85
2023-05-13T22:41:39.127Z,20.50
2023-05-13T22:44:05.808Z,17.17
2023-05-13T22:46:32.621Z,20.23
2023-05-13T22:48:59.303Z,22.48
2023-05-13T22:51:25.964Z,17.77
2023-05-13T22:53:52.634Z,19.30
2023-05-13T22:56:19.284Z,22.73
2023-05-13T22:58:46.291Z,20.05
2023-05-13T23:01:13.176Z,25.05
2023-05-13T23:03:39.940Z,33.10
2023-05-13T23:06:06.678Z,19.42
2023-05-13T23:08:33.452Z,22.83
2023-05-13T23:11:00.179Z,20.83
2023-05-13T23:13:26.836Z,20.33
2023-05-13T23:15:53.521Z,17.27
2023-05-13T23:18:20.236Z,23.55
2023-05-13T23:20:51.343Z,17.30
2023-05-13T23:23:18.080Z,23.65
2023-05-13T23:25:47.496Z,20.50
2023-05-13T23:28:14.310Z,25.25
2023-05-13T23:30:41.557Z,26.48
2023-05-13T23:33:08.610Z,26.02
2023-05-13T23:35:35.652Z,22.42
2023-05-13T23:38:02.518Z,27.45
2023-05-13T23:40:29.268Z,32.13
2023-05-13T23:42:55.918Z,25.60
2023-05-13T23:45:22.634Z,26.60
2023-05-13T23:47:50.211Z,25.98
2023-05-13T23:50:16.978Z,22.00
2023-05-13T23:52:43.911Z,26.10
2023-05-13T23:55:10.734Z,25.38
2023-05-13T23:57:37.406Z,22.48
